Admiral Richard E. Bennis — WDB4785 — position and weather

sailwx.info

Track history (hours):
 
Tides and Currents Weather Stations Pressure Air Temp Water Temp Dewpoint Dewpoint Depression Visibility Wind Speed Wind Dir Waves Ship Positions

Admiral Richard E. Bennis

Owner: PORT IMPERIAL FERRY CORP, WEEHAWKEN, NJ. More information available from US FCC via Universal Licensing System and Coast Guard Vessel Documentation Center.

Last reported at 2014-Oct-20 13:15 UTC. Time now 2014-Oct-20 18:02 UTC.
Position N 41°12' W 073°57'.

Length 26 m.

Type: Passenger vessel. MMSI: 366902320.

Date/timePositionNaut miles runAvg speedWind from/ knotsBaromVisibWave heightAir tempDewpointWater temp
2014-Oct-20 13:15N 41°12' W 073°57'  
2014-Oct-17 22:33N 41°10' W 073°55'1 0.0
2014-Oct-17 00:12N 41°11' W 073°56'3 1.0
2014-Oct-16 21:21N 41°09' W 073°53'2 0.1
2014-Oct-16 01:20N 41°10' W 073°55'1 1.0
2014-Oct-16 00:16N 41°10' W 073°54'1 0.8
2014-Oct-15 22:33N 41°11' W 073°55'0 0.2
2014-Oct-15 21:09N 41°11' W 073°55'0 0.2
2014-Oct-15 20:26N 41°11' W 073°55'2 0.3
2014-Oct-15 13:14N 41°12' W 073°57'1 1.0
2014-Oct-15 12:31N 41°12' W 073°57'3 3.2
2014-Oct-15 11:32N 41°09' W 073°54'1 0.9
2014-Oct-15 10:34N 41°10' W 073°55'3 2.6
2014-Oct-15 09:33N 41°12' W 073°57'3 0.4
2014-Oct-15 01:30N 41°10' W 073°54'0 0.5
2014-Oct-15 00:33N 41°10' W 073°55'1 0.9
2014-Oct-14 23:30N 41°09' W 073°54'3 3.1
2014-Oct-14 22:31N 41°12' W 073°56'2 1.9
2014-Oct-14 21:18N 41°10' W 073°54'0 0.6
2014-Oct-14 20:33N 41°10' W 073°55'2 0.3
2014-Oct-14 13:12N 41°12' W 073°57'0 0.6
2014-Oct-14 12:30N 41°12' W 073°57'3 3.0
2014-Oct-14 11:30N 41°10' W 073°54'0 0.4
2014-Oct-14 10:32N 41°10' W 073°54'1 0.1
2014-Oct-14 00:17N 41°09' W 073°53'4 0.4
2014-Oct-13 13:18N 41°12' W 073°57'2 1.4
2014-Oct-13 12:10N 41°11' W 073°56'1 0.8
2014-Oct-13 11:27N 41°10' W 073°55'1 1.3
2014-Oct-13 10:32N 41°10' W 073°54'  
2014-Oct-11 01:19N 41°10' W 073°54'0 0.2
2014-Oct-11 00:19N 41°10' W 073°54'3 3.8
2014-Oct-10 23:31N 41°12' W 073°57'0 0.3
2014-Oct-10 22:33N 41°11' W 073°56'3 2.2
2014-Oct-10 21:15N 41°10' W 073°54'1 1.5
2014-Oct-10 20:21N 41°10' W 073°55'  
Track history (hours):
 
Tides and Currents Weather Stations Pressure Air Temp Water Temp Dewpoint Dewpoint Depression Visibility Wind Speed Wind Dir Waves Ship Positions

Admiral Richard E. Bennis

Owner: PORT IMPERIAL FERRY CORP, WEEHAWKEN, NJ. More information available from US FCC via Universal Licensing System and Coast Guard Vessel Documentation Center.

Last reported at 2014-Oct-20 13:15 UTC. Time now 2014-Oct-20 18:02 UTC.
Position N 41°12' W 073°57'.

Length 26 m.

Type: Passenger vessel. MMSI: 366902320.

Date/timePositionNaut miles runAvg speedWind from/ knotsBaromVisibWave heightAir tempDewpointWater temp
2014-Oct-20 13:15N 41°12' W 073°57'  
2014-Oct-17 22:33N 41°10' W 073°55'1 0.0
2014-Oct-17 00:12N 41°11' W 073°56'3 1.0
2014-Oct-16 21:21N 41°09' W 073°53'2 0.1
2014-Oct-16 01:20N 41°10' W 073°55'1 1.0
2014-Oct-16 00:16N 41°10' W 073°54'1 0.8
2014-Oct-15 22:33N 41°11' W 073°55'0 0.2
2014-Oct-15 21:09N 41°11' W 073°55'0 0.2
2014-Oct-15 20:26N 41°11' W 073°55'2 0.3
2014-Oct-15 13:14N 41°12' W 073°57'1 1.0
2014-Oct-15 12:31N 41°12' W 073°57'3 3.2
2014-Oct-15 11:32N 41°09' W 073°54'1 0.9
2014-Oct-15 10:34N 41°10' W 073°55'3 2.6
2014-Oct-15 09:33N 41°12' W 073°57'3 0.4
2014-Oct-15 01:30N 41°10' W 073°54'0 0.5
2014-Oct-15 00:33N 41°10' W 073°55'1 0.9
2014-Oct-14 23:30N 41°09' W 073°54'3 3.1
2014-Oct-14 22:31N 41°12' W 073°56'2 1.9
2014-Oct-14 21:18N 41°10' W 073°54'0 0.6
2014-Oct-14 20:33N 41°10' W 073°55'2 0.3
2014-Oct-14 13:12N 41°12' W 073°57'0 0.6
2014-Oct-14 12:30N 41°12' W 073°57'3 3.0
2014-Oct-14 11:30N 41°10' W 073°54'0 0.4
2014-Oct-14 10:32N 41°10' W 073°54'1 0.1
2014-Oct-14 00:17N 41°09' W 073°53'4 0.4
2014-Oct-13 13:18N 41°12' W 073°57'2 1.4
2014-Oct-13 12:10N 41°11' W 073°56'1 0.8
2014-Oct-13 11:27N 41°10' W 073°55'1 1.3
2014-Oct-13 10:32N 41°10' W 073°54'  
2014-Oct-11 01:19N 41°10' W 073°54'0 0.2
2014-Oct-11 00:19N 41°10' W 073°54'3 3.8
2014-Oct-10 23:31N 41°12' W 073°57'0 0.3
2014-Oct-10 22:33N 41°11' W 073°56'3 2.2
2014-Oct-10 21:15N 41°10' W 073°54'1 1.5
2014-Oct-10 20:21N 41°10' W 073°55'  

Dump ship's entire track history